Time;durP1;ratioP1;P1;durP2;ratioP2;P2;SDS_P1;SDS_P2;PMS_P1;PMS_P2;Temp;Humidity;BMP_temperature;BMP_pressure;BME280_temperature;BME280_humidity;BME280_pressure;Samples;Min_cycle;Max_cycle;Signal;HPM_P1;HPM_P2
2021/09/13 16:21:22;;;;;;;;;;;;;;;;;;10537414;28;19920;-71
2021/09/13 16:26:26;;;;;;;;;;;;;;;;;;10529370;28;20441;-72
2021/09/13 16:31:30;;;;;;;;;;;;;;;;;;10537027;28;19924;-71
2021/09/13 16:36:32;;;;;;;;;;;;;;;;;;10513059;28;19977;-75
2021/09/13 16:41:38;;;;;;;;;;;;;;;;;;10512234;28;19924;-72
2021/09/13 16:46:43;;;;;;;;;;;;;;;;;;10526663;28;19932;-71
2021/09/13 16:51:47;;;;;;;;;;;;;;;;;;10507780;28;20381;-71
2021/09/13 16:56:50;;;;;;;;;;;;;;;;;;10532990;28;19924;-78
2021/09/13 17:01:54;;;;;;;;;;;;;;;;;;10528675;28;20001;-72
2021/09/13 17:06:58;;;;;;;;;;;;;;;;;;10547793;28;20297;-75
2021/09/13 17:12:01;;;;;;;;;;;;;;;;;;10546486;28;19935;-78
2021/09/13 17:17:03;;;;;;;;;;;;;;;;;;10545801;28;20308;-77
2021/09/13 17:22:06;;;;;;;;;;;;;;;;;;10528468;28;19939;-71
2021/09/13 17:27:09;;;;;;;;;;;;;;;;;;10527608;28;19978;-73
2021/09/13 17:32:12;;;;;;;;;;;;;;;;;;10528029;28;20354;-77
2021/09/13 17:37:14;;;;;;;;;;;;;;;;;;10527951;28;19924;-77
2021/09/13 17:42:18;;;;;;;;;;;;;;;;;;10545502;28;19924;-74
2021/09/13 17:47:21;;;;;;;;;;;;;;;;;;10510802;28;19952;-75
2021/09/13 17:52:24;;;;;;;;;;;;;;;;;;10528041;28;19924;-77
2021/09/13 17:57:26;;;;;;;;;;;;;;;;;;10527392;28;19931;-74
2021/09/13 18:02:31;;;;;;;;;;;;;;;;;;10538706;28;19961;-74
2021/09/13 18:07:35;;;;;;;;;;;;;;;;;;10495613;28;19924;-77
2021/09/13 18:12:38;;;;;;;;;;;;;;;;;;10503800;28;19967;-74
2021/09/13 18:17:48;;;;;;;;;;;;;;;;;;10493784;28;20383;-74
2021/09/13 18:22:51;;;;;;;;;;;;;;;;;;10520875;28;20347;-73
2021/09/13 18:27:53;;;;;;;;;;;;;;;;;;10527917;28;20339;-73
2021/09/13 18:32:56;;;;;;;;;;;;;;;;;;10539233;28;20452;-73
2021/09/13 18:38:00;;;;;;;;;;;;;;;;;;10539070;28;20023;-73
2021/09/13 18:43:02;;;;;;;;;;;;;;;;;;10535843;28;19928;-74
2021/09/13 18:48:06;;;;;;;;;;;;;;;;;;10493493;28;20423;-74
2021/09/13 18:53:09;;;;;;;;;;;;;;;;;;10503826;28;20301;-73
2021/09/13 18:58:13;;;;;;;;;;;;;;;;;;10482860;28;20366;-73
2021/09/13 19:03:18;;;;;;;;;;;;;;;;;;10500925;28;19935;-75
2021/09/13 19:08:23;;;;;;;;;;;;;;;;;;10507908;28;19924;-73
2021/09/13 19:13:27;;;;;;;;;;;;;;;;;;10493086;28;19924;-74
2021/09/13 19:18:31;;;;;;;;;;;;;;;;;;10480365;28;19948;-75
2021/09/13 19:23:35;;;;;;;;;;;;;;;;;;10499699;28;19925;-75
2021/09/13 19:28:38;;;;;;;;;;;;;;;;;;10499957;28;19925;-73
2021/09/13 19:33:45;;;;;;;;;;;;;;;;;;10512811;28;20444;-73
2021/09/13 19:38:49;;;;;;;;;;;;;;;;;;10505451;28;19991;-75
2021/09/13 19:43:55;;;;;;;;;;;;;;;;;;10476908;28;19948;-73
2021/09/13 19:48:58;;;;;;;;;;;;;;;;;;10522187;28;19924;-73
2021/09/13 19:54:06;;;;;;;;;;;;;;;;;;10522000;28;19924;-73
2021/09/13 19:59:14;;;;;;;;;;;;;;;;;;10495579;28;19982;-73
2021/09/13 20:04:18;;;;;;;;;;;;;;;;;;10517070;28;19928;-75
2021/09/13 20:09:29;;;;;;;;;;;;;;;;;;10487747;28;19925;-73
2021/09/13 20:14:32;;;;;;;;;;;;;;;;;;10496553;28;19932;-75
2021/09/13 20:19:37;;;;;;;;;;;;;;;;;;10508700;28;19924;-64
2021/09/13 20:24:42;;;;;;;;;;;;;;;;;;10513184;28;19970;-68
2021/09/13 20:29:46;;;;;;;;;;;;;;;;;;10495618;28;20377;-70
2021/09/13 20:34:50;;;;;;;;;;;;;;;;;;10512104;28;20285;-68
2021/09/13 20:45:01;;;;;;;;;;;;;;;;;;10503354;28;20423;-64
2021/09/13 20:50:05;;;;;;;;;;;;;;;;;;10499026;28;19967;-65
2021/09/13 20:55:10;;;;;;;;;;;;;;;;;;10505293;28;19928;-65
2021/09/13 21:00:16;;;;;;;;;;;;;;;;;;10508979;28;20006;-65
2021/09/13 21:05:27;;;;;;;;;;;;;;;;;;10496653;28;20019;-64
2021/09/13 21:10:30;;;;;;;;;;;;;;;;;;10502889;28;20365;-64
2021/09/13 21:15:33;;;;;;;;;;;;;;;;;;10509144;28;19935;-66
2021/09/13 21:20:37;;;;;;;;;;;;;;;;;;10525641;28;19928;-66
2021/09/13 21:25:40;;;;;;;;;;;;;;;;;;10520152;28;19929;-65
2021/09/13 21:30:43;;;;;;;;;;;;;;;;;;10488964;28;19924;-66
2021/09/13 21:35:46;;;;;;;;;;;;;;;;;;10492518;28;19951;-66
2021/09/13 21:40:48;;;;;;;;;;;;;;;;;;10504201;28;19932;-65
2021/09/13 21:45:52;;;;;;;;;;;;;;;;;;10523456;28;19924;-66
2021/09/13 21:50:54;;;;;;;;;;;;;;;;;;10521837;28;20303;-65
2021/09/13 21:55:56;;;;;;;;;;;;;;;;;;10522938;28;20019;-66
2021/09/13 22:00:59;;;;;;;;;;;;;;;;;;10521859;28;19963;-66
2021/09/13 22:06:02;;;;;;;;;;;;;;;;;;10521911;28;19924;-63
2021/09/13 22:11:04;;;;;;;;;;;;;;;;;;10522289;28;19928;-66
2021/09/13 22:16:08;;;;;;;;;;;;;;;;;;10523953;28;19932;-63
2021/09/13 22:21:10;;;;;;;;;;;;;;;;;;10519739;28;19924;-63
2021/09/13 22:26:13;;;;;;;;;;;;;;;;;;10513011;28;19925;-65
2021/09/13 22:31:15;;;;;;;;;;;;;;;;;;10527132;28;19925;-65
2021/09/13 22:36:18;;;;;;;;;;;;;;;;;;10520627;28;19924;-65
2021/09/13 22:41:20;;;;;;;;;;;;;;;;;;10520376;28;20304;-64
2021/09/13 22:46:23;;;;;;;;;;;;;;;;;;10520837;28;19924;-65
2021/09/13 22:51:25;;;;;;;;;;;;;;;;;;10512062;28;20020;-66
2021/09/13 22:56:27;;;;;;;;;;;;;;;;;;10496449;28;19978;-67
2021/09/13 23:01:30;;;;;;;;;;;;;;;;;;10496240;28;19924;-64
2021/09/13 23:06:33;;;;;;;;;;;;;;;;;;10497281;28;19964;-66
2021/09/13 23:11:35;;;;;;;;;;;;;;;;;;10499911;28;19924;-64
2021/09/13 23:16:38;;;;;;;;;;;;;;;;;;10499251;28;19939;-64
2021/09/13 23:21:42;;;;;;;;;;;;;;;;;;10497361;28;19925;-64
2021/09/13 23:26:44;;;;;;;;;;;;;;;;;;10499189;28;19970;-66
2021/09/13 23:31:47;;;;;;;;;;;;;;;;;;10498877;28;19950;-66
2021/09/13 23:36:51;;;;;;;;;;;;;;;;;;10493485;28;19936;-65
2021/09/13 23:41:53;;;;;;;;;;;;;;;;;;10496395;28;20389;-63
2021/09/13 23:46:56;;;;;;;;;;;;;;;;;;10498196;28;19993;-66
2021/09/13 23:52:00;;;;;;;;;;;;;;;;;;10497259;28;19952;-64
2021/09/13 23:57:02;;;;;;;;;;;;;;;;;;10497962;28;19924;-63
